WetterOnline ( https://www.wetteronline.ch )

Wetter aktuell Naumburg

Aktuelles Wetter: Osterfeld (246m)

6-stündlich | Neueste Meldungen
Ortszeit Temperatur Wetter
Mi, 03.06. 2:00 15.8° C wolkig
Di, 02.06. 20:00 22.3° C wolkenlos
Di, 02.06. 14:00 22.7° C wolkenlos
Di, 02.06. 8:00 14.0° C wolkenlos
Di, 02.06. 2:00 11.8° C wolkenlos
Mo, 01.06. 20:00 20.1° C fast wolkenlos
Mo, 01.06. 14:00 19.9° C fast wolkenlos
Mo, 01.06. 8:00 10.5° C wolkenlos
Ortszeit Temperatur Wetter
Mi, 03.06. 4:00 12.3° C fast wolkenlos
Mi, 03.06. 3:30 12.8° C wolkenlos
Mi, 03.06. 3:20 12.8° C wolkenlos
Mi, 03.06. 3:10 13.3° C wolkenlos
Mi, 03.06. 3:00 14.2° C leicht bewölkt
Mi, 03.06. 2:50 14.2° C leicht bewölkt
Mi, 03.06. 2:30 14.4° C wolkig
Mi, 03.06. 2:00 15.8° C wolkig
Mi, 03.06. 1:30 15.3° C leicht bewölkt
Mi, 03.06. 1:00 15.5° C fast wolkenlos
Mi, 03.06. 0:30 15.5° C leicht bewölkt
Ortszeit Relative Feuchte Sichtweite
Mi, 03.06. 2:00 57% 11 km
Di, 02.06. 20:00 47% 11 km
Di, 02.06. 14:00 38% 11 km
Di, 02.06. 8:00 62% 11 km
Di, 02.06. 2:00 71% 11 km
Mo, 01.06. 20:00 43% 11 km
Mo, 01.06. 14:00 45% 11 km
Mo, 01.06. 8:00 74% 11 km
Ortszeit Relative Feuchte Sichtweite
Mi, 03.06. 4:00 72% 11 km
Mi, 03.06. 3:30 70% 11 km
Mi, 03.06. 3:20 70% -
Mi, 03.06. 3:10 67% -
Mi, 03.06. 3:00 63% 11 km
Mi, 03.06. 2:50 63% -
Mi, 03.06. 2:30 63% 11 km
Mi, 03.06. 2:00 57% 11 km
Mi, 03.06. 1:30 59% 11 km
Mi, 03.06. 1:00 60% 11 km
Mi, 03.06. 0:30 61% 11 km
Ortszeit Niederschlagsmenge Niederschlagsart
Mi, 03.06. 2:00 0.0 l/m2 in 6 Std. -
Di, 02.06. 20:00 0.0 l/m2 in 12 Std. -
Di, 02.06. 14:00 0.0 l/m2 in 6 Std. -
Di, 02.06. 8:00 0.0 l/m2 in 12 Std. -
Di, 02.06. 2:00 0.0 l/m2 in 6 Std. -
Mo, 01.06. 20:00 0.0 l/m2 in 12 Std. -
Mo, 01.06. 14:00 0.0 l/m2 in 6 Std. -
Mo, 01.06. 8:00 0.0 l/m2 in 12 Std. -
Ortszeit Niederschlagsmenge Niederschlagsart
Mi, 03.06. 4:00 keine Meldung -
Mi, 03.06. 3:30 0.0 l/m2 in 1 Std. -
Mi, 03.06. 3:20 keine Meldung -
Mi, 03.06. 3:10 keine Meldung -
Mi, 03.06. 3:00 0.0 l/m2 in 1 Std. -
Mi, 03.06. 2:50 keine Meldung -
Mi, 03.06. 2:30 0.0 l/m2 in 1 Std. -
Mi, 03.06. 2:00 0.0 l/m2 in 1 Std. -
Mi, 03.06. 1:30 0.0 l/m2 in 1 Std. -
Mi, 03.06. 1:00 0.0 l/m2 in 1 Std. -
Mi, 03.06. 0:30 0.0 l/m2 in 1 Std. -
Ortszeit Stärke Spitze Richtung
km/h Bft. km/h Grad Sektor
Mi, 03.06. 2:00 4 1 7 190° S
Di, 02.06. 20:00 7 2 22 330° NW
Di, 02.06. 14:00 7 2 18 50° NO
Di, 02.06. 8:00 7 2 14 20° N
Di, 02.06. 2:00 14 3 22 60° NO
Mo, 01.06. 20:00 13 3 35 40° NO
Mo, 01.06. 14:00 13 3 26 30° NO
Mo, 01.06. 8:00 9 2 19 350° N
Ortszeit Stärke Spitze Richtung
km/h Bft. km/h Grad Sektor
Mi, 03.06. 4:00 6 1 6 200° S
Mi, 03.06. 3:30 4 1 7 200° S
Mi, 03.06. 3:20 4 1 - 200° S
Mi, 03.06. 3:10 6 1 - 200° S
Mi, 03.06. 3:00 4 1 7 210° SW
Mi, 03.06. 2:50 4 1 - 210° SW
Mi, 03.06. 2:30 4 1 4 200° S
Mi, 03.06. 2:00 4 1 7 190° S
Mi, 03.06. 1:30 4 1 7 190° S
Mi, 03.06. 1:00 4 1 7 180° S
Mi, 03.06. 0:30 4 1 4 190° S
Ortszeit Untergrenze Bedeckung Gattung
total tief tief mittel hoch
Mi, 03.06. 2:00 7500 m 7/8 0/8 - - -
Di, 02.06. 20:00 - 0/8 0/8 - - -
Di, 02.06. 14:00 - 0/8 0/8 - - -
Di, 02.06. 8:00 - 0/8 0/8 - - -
Di, 02.06. 2:00 - 0/8 0/8 - - -
Mo, 01.06. 20:00 8700 m 1/8 0/8 - - -
Mo, 01.06. 14:00 8100 m 1/8 0/8 - - -
Mo, 01.06. 8:00 - 0/8 0/8 - - -
Ortszeit Bedeckungsgrad in Achtel und Wolkenuntergrenze
Mi, 03.06. 4:00 1(7200m)
Mi, 03.06. 3:30 keine Wolken
Mi, 03.06. 3:20 keine Wolken
Mi, 03.06. 3:10 keine Wolken
Mi, 03.06. 3:00 4(8100m)
Mi, 03.06. 2:50 4(8100m)
Mi, 03.06. 2:30 7(8700m) 8(9000m)
Mi, 03.06. 2:00 2(7500m) 7(8400m) 7(9000m)
Mi, 03.06. 1:30 4(8100m) 5(8700m)
Mi, 03.06. 1:00 2(8100m)
Mi, 03.06. 0:30 4(8400m) 5(9000m) 6(10500m)
Ortszeit Luftdruck NN (hPa) Tendenz (hPa in 3 Std.)
Mi, 03.06. 2:00 1011 - 1,8
Di, 02.06. 20:00 1013 - 2,1
Di, 02.06. 14:00 1017 - 1,9
Di, 02.06. 8:00 1021 + 0,3
Di, 02.06. 2:00 1021 - 0,2
Mo, 01.06. 20:00 1020 - 0,6
Mo, 01.06. 14:00 1022 - 1,2
Mo, 01.06. 8:00 1024 + 1,1
Ortszeit Luftdruck NN (hPa) Tendenz (hPa in 3 Std.)
Mi, 03.06. 4:00 1010 - 2,0
Mi, 03.06. 3:30 1010 - 1,9
Mi, 03.06. 3:20 1010 keine Meldung
Mi, 03.06. 3:10 1010 keine Meldung
Mi, 03.06. 3:00 1010 - 1,9
Mi, 03.06. 2:50 1010 keine Meldung
Mi, 03.06. 2:30 1011 - 1,8
Mi, 03.06. 2:00 1011 - 1,8
Mi, 03.06. 1:30 1011 - 1,6
Mi, 03.06. 1:00 1011 - 1,4
Mi, 03.06. 0:30 1012 - 1,1
Ortszeit Schneehöhe (cm)
Mi, 03.06. 2:00 -
Di, 02.06. 20:00 -
Di, 02.06. 14:00 -
Di, 02.06. 8:00 -
Di, 02.06. 2:00 -
Mo, 01.06. 20:00 -
Mo, 01.06. 14:00 -
Mo, 01.06. 8:00 -
Ortszeit Schneehöhe (cm)
Mi, 03.06. 4:00 -
Mi, 03.06. 3:30 -
Mi, 03.06. 3:20 -
Mi, 03.06. 3:10 -
Mi, 03.06. 3:00 -
Mi, 03.06. 2:50 -
Mi, 03.06. 2:30 -
Mi, 03.06. 2:00 -
Mi, 03.06. 1:30 -
Mi, 03.06. 1:00 -
Mi, 03.06. 0:30 -
Link zu dieser Seite / Seite empfehlen

Das Wetter in ...